createdAt,value
2019-04-16T00:00:36.950Z,99.90
2019-04-16T00:03:10.599Z,99.90
2019-04-16T00:05:48.321Z,99.90
2019-04-16T00:08:29.534Z,99.90
2019-04-16T00:11:04.812Z,99.90
2019-04-16T00:13:40.136Z,99.90
2019-04-16T00:16:13.871Z,99.90
2019-04-16T00:18:57.332Z,99.90
2019-04-16T00:21:24.329Z,99.90
2019-04-16T00:24:11.521Z,99.90
2019-04-16T00:26:45.096Z,99.90
2019-04-16T00:29:18.609Z,99.90
2019-04-16T00:31:53.933Z,99.90
2019-04-16T00:34:29.111Z,99.90
2019-04-16T00:37:03.050Z,99.90
2019-04-16T00:39:36.799Z,99.90
2019-04-16T00:42:11.128Z,99.90
2019-04-16T00:44:44.717Z,99.90
2019-04-16T00:47:18.300Z,99.90
2019-04-16T00:49:51.883Z,99.90
2019-04-16T00:52:25.401Z,99.90
2019-04-16T00:54:59.168Z,99.90
2019-04-16T00:57:32.708Z,99.90
2019-04-16T01:00:07.012Z,99.90
2019-04-16T01:02:40.719Z,99.90
2019-04-16T01:05:14.446Z,99.90
2019-04-16T01:07:48.036Z,99.90
2019-04-16T01:10:21.871Z,99.90
2019-04-16T01:12:55.458Z,99.90
2019-04-16T01:15:32.111Z,99.90
2019-04-16T01:18:08.239Z,99.90
2019-04-16T01:20:43.299Z,99.90
2019-04-16T01:23:17.813Z,99.90
2019-04-16T01:25:55.378Z,99.90
2019-04-16T01:28:37.358Z,99.90
2019-04-16T01:31:19.803Z,99.90
2019-04-16T01:34:03.867Z,99.90
2019-04-16T01:36:39.115Z,99.90
2019-04-16T01:39:17.790Z,99.90
2019-04-16T01:41:52.318Z,99.90
2019-04-16T01:44:28.578Z,99.90
2019-04-16T01:47:03.411Z,99.90
2019-04-16T01:49:35.713Z,99.90
2019-04-16T01:52:09.213Z,99.90
2019-04-16T01:54:43.254Z,99.90
2019-04-16T01:57:16.822Z,99.90
2019-04-16T01:59:50.415Z,99.90
2019-04-16T02:02:23.972Z,99.90
2019-04-16T02:04:57.769Z,99.90
2019-04-16T02:07:31.892Z,99.90
2019-04-16T02:10:07.577Z,99.90
2019-04-16T02:12:43.899Z,99.90
2019-04-16T02:15:21.602Z,99.90
2019-04-16T02:17:52.321Z,99.90
2019-04-16T02:20:25.914Z,99.90
2019-04-16T02:22:59.500Z,99.90
2019-04-16T02:25:33.185Z,99.90
2019-04-16T02:28:06.779Z,99.90
2019-04-16T02:30:40.623Z,99.90
2019-04-16T02:33:14.204Z,99.90
2019-04-16T02:35:47.765Z,99.90
2019-04-16T02:38:21.369Z,99.90
2019-04-16T02:40:55.009Z,99.90
2019-04-16T02:43:28.613Z,99.90
2019-04-16T02:46:02.457Z,99.90
2019-04-16T02:48:36.123Z,99.90
2019-04-16T02:51:20.406Z,99.90
2019-04-16T02:54:04.321Z,99.90
2019-04-16T02:56:51.588Z,99.90
2019-04-16T02:59:24.538Z,99.90
2019-04-16T03:01:59.915Z,99.90
2019-04-16T03:04:53.020Z,99.90
2019-04-16T03:07:26.754Z,99.90
2019-04-16T03:10:01.921Z,99.90
2019-04-16T03:12:35.866Z,99.90
2019-04-16T03:15:09.498Z,99.90
2019-04-16T03:17:44.738Z,99.90
2019-04-16T03:20:20.906Z,99.90
2019-04-16T03:22:56.262Z,99.90
2019-04-16T03:25:29.865Z,99.90
2019-04-16T03:28:03.492Z,99.90
2019-04-16T03:30:42.354Z,99.90
2019-04-16T03:33:14.823Z,99.90
2019-04-16T03:35:47.675Z,99.90
2019-04-16T03:38:21.302Z,99.90
2019-04-16T03:40:56.061Z,99.90
2019-04-16T03:43:32.840Z,99.90
2019-04-16T03:46:05.785Z,99.90
2019-04-16T03:48:39.576Z,99.90
2019-04-16T03:51:13.162Z,99.90
2019-04-16T03:53:49.533Z,99.90
2019-04-16T03:56:22.046Z,99.90
2019-04-16T03:58:55.641Z,99.90
2019-04-16T04:01:30.598Z,99.90
2019-04-16T04:04:04.454Z,99.90
2019-04-16T04:06:40.501Z,99.90
2019-04-16T04:09:14.492Z,99.90
2019-04-16T04:11:48.051Z,99.90
2019-04-16T04:14:23.357Z,99.90
2019-04-16T04:16:57.426Z,99.90
2019-04-16T04:19:31.000Z,99.90
2019-04-16T04:22:04.592Z,99.90
2019-04-16T04:24:38.168Z,99.90
2019-04-16T04:27:14.396Z,99.90
2019-04-16T04:29:46.977Z,99.90
2019-04-16T04:32:20.500Z,99.90
2019-04-16T04:34:53.999Z,99.90
2019-04-16T04:37:31.016Z,99.90
2019-04-16T04:40:02.984Z,99.90
2019-04-16T04:42:36.559Z,99.90
2019-04-16T04:45:10.657Z,99.90
2019-04-16T04:47:44.263Z,99.90
2019-04-16T04:50:17.856Z,99.90
2019-04-16T04:52:51.390Z,99.90
2019-04-16T04:55:26.943Z,99.90
2019-04-16T04:58:02.814Z,99.90
2019-04-16T05:00:37.484Z,99.90
2019-04-16T05:03:15.536Z,99.90
2019-04-16T05:05:53.340Z,99.90
2019-04-16T05:08:28.649Z,99.90
2019-04-16T05:11:03.029Z,99.90
2019-04-16T05:13:38.223Z,99.90
2019-04-16T05:16:11.827Z,99.90
2019-04-16T05:18:45.401Z,99.90
2019-04-16T05:21:19.554Z,99.90
2019-04-16T05:23:57.177Z,99.90
2019-04-16T05:26:28.915Z,99.90
2019-04-16T05:29:16.078Z,99.90
2019-04-16T05:31:47.253Z,99.90
2019-04-16T05:34:21.978Z,99.90
2019-04-16T05:36:55.642Z,99.90
2019-04-16T05:39:29.358Z,99.90
2019-04-16T05:42:03.298Z,99.90
2019-04-16T05:44:36.901Z,99.90
2019-04-16T05:47:10.568Z,99.90
2019-04-16T05:49:44.060Z,99.90
2019-04-16T05:52:18.732Z,99.90
2019-04-16T05:55:07.010Z,99.90
2019-04-16T05:57:47.978Z,99.90
2019-04-16T06:00:24.281Z,99.90
2019-04-16T06:02:57.886Z,99.90
2019-04-16T06:05:32.525Z,99.90
2019-04-16T06:08:10.688Z,99.90
2019-04-16T06:10:44.370Z,99.90
2019-04-16T06:13:28.285Z,99.90
2019-04-16T06:16:09.328Z,99.90
2019-04-16T06:18:51.571Z,99.90
2019-04-16T06:21:35.567Z,99.90
2019-04-16T06:24:23.349Z,99.90
2019-04-16T06:26:58.548Z,99.90
2019-04-16T06:29:40.855Z,99.90
2019-04-16T06:32:22.075Z,99.90
2019-04-16T06:35:06.263Z,99.90
2019-04-16T06:37:56.062Z,99.90
2019-04-16T06:40:49.093Z,99.90
2019-04-16T06:43:27.371Z,99.90
2019-04-16T06:46:20.121Z,99.90
2019-04-16T06:49:07.976Z,99.90
2019-04-16T06:51:59.607Z,99.90
2019-04-16T06:54:49.779Z,99.90
2019-04-16T06:57:34.141Z,99.90
2019-04-16T07:00:10.209Z,99.90
2019-04-16T07:03:01.375Z,99.90
2019-04-16T07:05:41.061Z,99.90
2019-04-16T07:08:42.497Z,99.90
2019-04-16T07:11:21.129Z,99.90
2019-04-16T07:13:54.650Z,99.90
2019-04-16T07:19:01.620Z,99.90
2019-04-16T07:21:35.113Z,99.90
2019-04-16T07:24:09.595Z,99.90
2019-04-16T07:26:47.871Z,99.90
2019-04-16T07:29:20.636Z,99.90
2019-04-16T07:32:02.414Z,99.90
2019-04-16T07:34:41.078Z,99.90
2019-04-16T07:37:16.868Z,99.90
2019-04-16T07:39:55.696Z,99.90
2019-04-16T07:42:51.953Z,99.90
2019-04-16T07:45:40.566Z,99.90
2019-04-16T07:48:23.070Z,99.90
2019-04-16T07:51:01.585Z,99.90
2019-04-16T07:53:47.464Z,99.90
2019-04-16T07:56:23.554Z,99.90
2019-04-16T07:59:00.470Z,99.90
2019-04-16T08:01:35.235Z,99.90
2019-04-16T08:04:09.386Z,98.60
2019-04-16T08:06:46.249Z,99.90
2019-04-16T08:09:19.386Z,99.90
2019-04-16T08:11:53.580Z,99.90
2019-04-16T08:14:27.816Z,99.90
2019-04-16T08:17:02.030Z,97.20
2019-04-16T08:19:37.535Z,99.90
2019-04-16T08:22:15.473Z,99.90
2019-04-16T08:24:59.432Z,99.90
2019-04-16T08:27:31.344Z,99.90
2019-04-16T08:30:09.340Z,99.90
2019-04-16T08:32:45.759Z,98.30
2019-04-16T08:35:20.466Z,97.90
2019-04-16T08:37:57.789Z,96.80
2019-04-16T08:40:30.595Z,95.50
2019-04-16T08:43:05.082Z,94.10
2019-04-16T08:45:39.991Z,94.10
2019-04-16T08:48:18.683Z,93.30
2019-04-16T08:50:50.089Z,90.20
2019-04-16T08:53:24.275Z,90.50
2019-04-16T08:55:58.369Z,91.70
2019-04-16T08:58:32.469Z,88.80
2019-04-16T09:01:07.947Z,93.80
2019-04-16T09:03:42.123Z,94.70
2019-04-16T09:06:16.213Z,93.20
2019-04-16T09:08:53.117Z,98.00
2019-04-16T09:11:28.516Z,99.00
2019-04-16T09:14:03.637Z,99.70
2019-04-16T09:16:39.451Z,98.30
2019-04-16T09:19:16.381Z,99.20
2019-04-16T09:21:50.781Z,99.20
2019-04-16T09:24:26.524Z,98.50
2019-04-16T09:27:02.335Z,96.40
2019-04-16T09:29:54.111Z,95.20
2019-04-16T09:32:41.757Z,94.10
2019-04-16T09:35:19.697Z,97.20
2019-04-16T09:37:54.929Z,97.10
2019-04-16T09:40:49.101Z,97.60
2019-04-16T09:43:24.068Z,94.10
2019-04-16T09:46:10.203Z,95.60
2019-04-16T09:48:35.599Z,94.60
2019-04-16T09:51:09.732Z,95.20
2019-04-16T09:53:44.957Z,92.30
2019-04-16T09:56:29.468Z,89.60
2019-04-16T09:59:05.888Z,86.50
2019-04-16T10:01:44.665Z,83.00
2019-04-16T10:04:20.018Z,87.80
2019-04-16T10:06:54.176Z,88.30
2019-04-16T10:09:28.538Z,88.50
2019-04-16T10:12:04.945Z,87.60
2019-04-16T10:14:38.863Z,79.70
2019-04-16T10:17:13.110Z,85.10
2019-04-16T10:19:47.255Z,91.60
2019-04-16T10:22:21.456Z,92.00
2019-04-16T10:25:00.227Z,87.40
2019-04-16T10:27:36.032Z,87.70
2019-04-16T10:30:16.299Z,86.20
2019-04-16T10:32:51.055Z,91.80
2019-04-16T10:35:25.572Z,88.30
2019-04-16T10:38:02.738Z,87.20
2019-04-16T10:40:38.594Z,89.70
2019-04-16T10:43:14.741Z,90.00
2019-04-16T10:46:05.670Z,85.50
2019-04-16T10:48:41.650Z,88.70
2019-04-16T10:51:32.644Z,86.20
2019-04-16T10:54:08.375Z,83.00
2019-04-16T10:57:00.227Z,87.90
2019-04-16T10:59:46.272Z,82.30
2019-04-16T11:02:38.395Z,84.40
2019-04-16T11:05:23.139Z,90.90
2019-04-16T11:07:59.235Z,88.00
2019-04-16T11:10:33.444Z,90.10
2019-04-16T11:13:09.408Z,86.70
2019-04-16T11:15:44.040Z,84.00
2019-04-16T11:18:18.302Z,86.50
2019-04-16T11:20:52.520Z,87.80
2019-04-16T11:23:26.831Z,91.60
2019-04-16T11:26:01.866Z,84.00
2019-04-16T11:28:36.078Z,87.40
2019-04-16T11:31:14.908Z,92.20
2019-04-16T11:33:49.131Z,83.20
2019-04-16T11:36:23.268Z,88.90
2019-04-16T11:38:57.470Z,85.60
2019-04-16T11:41:31.605Z,81.20
2019-04-16T11:44:15.031Z,84.30
2019-04-16T11:46:42.221Z,84.40
2019-04-16T11:49:16.422Z,86.30
2019-04-16T11:51:50.542Z,81.20
2019-04-16T11:54:24.698Z,77.40
2019-04-16T11:56:59.508Z,77.40
2019-04-16T11:59:38.075Z,71.30
2019-04-16T12:02:14.604Z,80.00
2019-04-16T12:04:58.831Z,77.90
2019-04-16T12:07:37.530Z,78.40
2019-04-16T12:10:16.110Z,78.30
2019-04-16T12:12:53.395Z,83.00
2019-04-16T12:15:35.280Z,88.50
2019-04-16T12:18:26.050Z,81.30
2019-04-16T12:21:02.165Z,74.20
2019-04-16T12:23:55.854Z,78.40
2019-04-16T12:26:34.502Z,79.70
2019-04-16T12:29:13.323Z,80.80
2019-04-16T12:31:57.940Z,79.50
2019-04-16T12:34:38.251Z,80.80
2019-04-16T12:37:18.344Z,81.10
2019-04-16T12:40:10.371Z,80.60
2019-04-16T12:42:56.575Z,81.60
2019-04-16T12:45:53.258Z,79.00
2019-04-16T12:48:34.199Z,82.50
2019-04-16T12:51:17.451Z,78.50
2019-04-16T12:53:58.973Z,81.60
2019-04-16T12:56:51.007Z,83.00
2019-04-16T12:59:44.556Z,79.00
2019-04-16T13:02:26.202Z,80.30
2019-04-16T13:05:07.478Z,88.50
2019-04-16T13:07:43.293Z,86.40
2019-04-16T13:10:22.124Z,89.00
2019-04-16T13:12:57.936Z,86.30
2019-04-16T13:15:45.808Z,87.30
2019-04-16T13:18:23.155Z,87.50
2019-04-16T13:21:03.971Z,92.70
2019-04-16T13:23:39.431Z,90.10
2019-04-16T13:26:19.665Z,88.00
2019-04-16T13:28:55.509Z,89.20
2019-04-16T13:31:29.718Z,91.00
2019-04-16T13:34:03.998Z,92.10
2019-04-16T13:36:40.184Z,91.30
2019-04-16T13:39:16.093Z,90.60
2019-04-16T13:41:50.509Z,92.30
2019-04-16T13:44:26.578Z,93.00
2019-04-16T13:47:03.062Z,93.10
2019-04-16T13:49:38.209Z,94.30
2019-04-16T13:52:16.995Z,94.00
2019-04-16T13:55:09.919Z,93.00
2019-04-16T13:58:01.313Z,93.10
2019-04-16T14:00:43.062Z,92.40
2019-04-16T14:03:23.746Z,90.80
2019-04-16T14:05:57.638Z,93.00
2019-04-16T14:08:31.813Z,92.10
2019-04-16T14:11:06.064Z,90.20
2019-04-16T14:13:41.993Z,92.10
2019-04-16T14:16:17.757Z,89.40
2019-04-16T14:18:52.024Z,89.30
2019-04-16T14:21:27.645Z,91.40
2019-04-16T14:24:01.893Z,91.20
2019-04-16T14:26:36.106Z,91.70
2019-04-16T14:29:10.197Z,91.40
2019-04-16T14:31:46.178Z,91.70
2019-04-16T14:34:22.009Z,93.20
2019-04-16T14:36:56.896Z,91.60
2019-04-16T14:39:39.351Z,92.60
2019-04-16T14:42:13.868Z,91.10
2019-04-16T14:45:07.411Z,90.80
2019-04-16T14:47:41.383Z,91.10
2019-04-16T14:50:19.957Z,90.10
2019-04-16T14:52:53.948Z,92.90
2019-04-16T14:55:41.993Z,92.50
2019-04-16T14:58:33.807Z,90.90
2019-04-16T15:01:28.002Z,91.50
2019-04-16T15:04:12.654Z,92.40
2019-04-16T15:06:52.735Z,91.80
2019-04-16T15:09:45.768Z,93.10
2019-04-16T15:12:24.311Z,93.30
2019-04-16T15:15:01.704Z,91.70
2019-04-16T15:17:49.063Z,91.90
2019-04-16T15:20:24.958Z,93.00
2019-04-16T15:23:15.953Z,92.20
2019-04-16T15:25:54.740Z,93.70
2019-04-16T15:28:46.749Z,92.70
2019-04-16T15:31:38.638Z,93.80
2019-04-16T15:34:14.447Z,94.80
2019-04-16T15:36:55.104Z,91.40
2019-04-16T15:39:35.443Z,92.30
2019-04-16T15:42:20.080Z,94.00
2019-04-16T15:45:02.119Z,94.60
2019-04-16T15:47:54.417Z,95.00
2019-04-16T15:50:36.604Z,94.40
2019-04-16T15:53:17.408Z,95.30
2019-04-16T15:55:53.186Z,94.30
2019-04-16T15:58:33.400Z,94.80
2019-04-16T16:01:18.681Z,93.90
2019-04-16T16:04:06.526Z,93.50
2019-04-16T16:06:52.377Z,92.60
2019-04-16T16:09:27.991Z,92.80
2019-04-16T16:12:03.816Z,95.60
2019-04-16T16:14:38.789Z,94.20
2019-04-16T16:17:13.759Z,92.30
2019-04-16T16:19:47.936Z,92.50
2019-04-16T16:22:23.100Z,92.20
2019-04-16T16:24:57.355Z,93.40
2019-04-16T16:27:32.427Z,93.50
2019-04-16T16:30:07.366Z,94.80
2019-04-16T16:32:41.521Z,94.50
2019-04-16T16:35:17.818Z,92.70
2019-04-16T16:37:51.633Z,93.00
2019-04-16T16:40:25.137Z,92.20
2019-04-16T16:42:58.743Z,91.80
2019-04-16T16:45:50.391Z,91.80
2019-04-16T16:48:25.136Z,92.10
2019-04-16T16:50:58.706Z,93.70
2019-04-16T16:53:50.080Z,93.50
2019-04-16T16:56:25.286Z,91.00
2019-04-16T16:59:00.490Z,90.60
2019-04-16T17:01:35.711Z,91.30
2019-04-16T17:04:16.912Z,90.70
2019-04-16T17:06:50.480Z,90.20
2019-04-16T17:09:31.410Z,91.00
2019-04-16T17:12:06.875Z,91.70
2019-04-16T17:14:40.620Z,92.10
2019-04-16T17:17:16.500Z,92.20
2019-04-16T17:19:51.063Z,93.20
2019-04-16T17:22:25.933Z,92.80
2019-04-16T17:24:59.544Z,93.20
2019-04-16T17:27:33.190Z,93.80
2019-04-16T17:30:07.721Z,94.80
2019-04-16T17:32:41.325Z,94.10
2019-04-16T17:35:15.951Z,95.00
2019-04-16T17:37:50.045Z,95.90
2019-04-16T17:40:25.279Z,95.80
2019-04-16T17:43:12.628Z,95.30
2019-04-16T17:45:52.055Z,95.20
2019-04-16T17:48:29.734Z,95.40
2019-04-16T17:51:19.856Z,96.80
2019-04-16T17:54:03.699Z,97.50
2019-04-16T17:56:46.091Z,98.60
2019-04-16T17:59:29.574Z,99.00
2019-04-16T18:02:20.703Z,98.40
2019-04-16T18:05:04.372Z,98.90
2019-04-16T18:07:55.609Z,99.00
2019-04-16T18:10:33.705Z,99.40
2019-04-16T18:13:11.567Z,99.70
2019-04-16T18:16:03.765Z,99.90
2019-04-16T18:18:45.969Z,99.90
2019-04-16T18:21:23.746Z,99.90
2019-04-16T18:24:15.960Z,99.90
2019-04-16T18:26:58.384Z,99.90
2019-04-16T18:29:48.700Z,99.90
2019-04-16T18:32:31.065Z,99.90
2019-04-16T18:35:26.009Z,99.90
2019-04-16T18:38:02.224Z,99.90
2019-04-16T18:40:43.364Z,99.90
2019-04-16T18:43:20.242Z,99.90
2019-04-16T18:46:15.337Z,99.90
2019-04-16T18:49:08.569Z,99.90
2019-04-16T18:51:43.642Z,99.90
2019-04-16T18:54:17.337Z,99.90
2019-04-16T18:56:51.421Z,99.90
2019-04-16T18:59:26.727Z,99.90
2019-04-16T19:02:02.051Z,99.90
2019-04-16T19:04:35.689Z,99.90
2019-04-16T19:07:13.184Z,99.90
2019-04-16T19:09:46.765Z,99.90
2019-04-16T19:12:21.644Z,99.90
2019-04-16T19:14:55.213Z,99.90
2019-04-16T19:17:29.103Z,99.90
2019-04-16T19:20:05.326Z,99.90
2019-04-16T19:22:38.993Z,99.90
2019-04-16T19:25:12.618Z,99.90
2019-04-16T19:27:49.179Z,99.90
2019-04-16T19:30:23.242Z,99.90
2019-04-16T19:33:00.118Z,99.90
2019-04-16T19:35:32.388Z,99.90
2019-04-16T19:38:07.510Z,99.90
2019-04-16T19:40:41.145Z,99.90
2019-04-16T19:43:16.960Z,99.90
2019-04-16T19:45:50.568Z,99.90
2019-04-16T19:48:35.294Z,99.90
2019-04-16T19:51:00.842Z,99.90
2019-04-16T19:53:34.450Z,99.90
2019-04-16T19:56:07.951Z,99.90
2019-04-16T19:58:44.312Z,99.90
2019-04-16T20:01:18.065Z,99.90
2019-04-16T20:03:53.540Z,99.90
2019-04-16T20:06:27.149Z,99.90
2019-04-16T20:09:02.088Z,99.90
2019-04-16T20:11:35.814Z,99.90
2019-04-16T20:14:09.466Z,99.90
2019-04-16T20:16:43.028Z,99.90
2019-04-16T20:19:19.655Z,99.90
2019-04-16T20:21:53.316Z,99.90
2019-04-16T20:24:26.845Z,99.90
2019-04-16T20:27:04.883Z,99.90
2019-04-16T20:29:35.654Z,99.90
2019-04-16T20:32:09.177Z,99.90
2019-04-16T20:34:45.221Z,99.90
2019-04-16T20:37:18.496Z,99.90
2019-04-16T20:39:52.077Z,99.90
2019-04-16T20:42:25.637Z,99.90
2019-04-16T20:44:59.355Z,99.90
2019-04-16T20:47:38.623Z,99.90
2019-04-16T20:50:09.429Z,99.90
2019-04-16T20:52:42.999Z,99.90
2019-04-16T20:55:16.806Z,99.90
2019-04-16T20:57:50.379Z,99.90
2019-04-16T21:00:25.619Z,99.90
2019-04-16T21:03:03.200Z,99.90
2019-04-16T21:05:37.015Z,99.90
2019-04-16T21:08:10.595Z,99.90
2019-04-16T21:10:44.180Z,99.90
2019-04-16T21:13:18.006Z,99.90
2019-04-16T21:15:51.595Z,99.90
2019-04-16T21:18:26.371Z,99.90
2019-04-16T21:21:00.036Z,99.90
2019-04-16T21:23:34.732Z,99.90
2019-04-16T21:26:08.942Z,99.90
2019-04-16T21:28:50.170Z,99.90
2019-04-16T21:31:42.277Z,99.90
2019-04-16T21:34:18.233Z,99.90
2019-04-16T21:36:53.702Z,99.90
2019-04-16T21:39:28.955Z,99.90
2019-04-16T21:42:03.303Z,99.90
2019-04-16T21:44:37.850Z,99.90
2019-04-16T21:47:12.964Z,99.90
2019-04-16T21:49:47.312Z,99.90
2019-04-16T21:52:23.238Z,99.90
2019-04-16T21:55:02.521Z,99.90
2019-04-16T21:57:32.469Z,99.90
2019-04-16T22:00:10.158Z,99.90
2019-04-16T22:02:43.933Z,99.90
2019-04-16T22:05:17.871Z,99.90
2019-04-16T22:07:53.643Z,99.90
2019-04-16T22:10:30.063Z,99.90
2019-04-16T22:13:03.922Z,99.90
2019-04-16T22:15:38.265Z,99.90
2019-04-16T22:18:12.973Z,99.90
2019-04-16T22:20:46.577Z,99.90
2019-04-16T22:23:20.177Z,99.90
2019-04-16T22:25:57.161Z,99.90
2019-04-16T22:28:29.031Z,99.90
2019-04-16T22:31:02.634Z,99.90
2019-04-16T22:33:36.202Z,99.90
2019-04-16T22:36:10.795Z,99.90
2019-04-16T22:38:45.962Z,99.90
2019-04-16T22:41:30.033Z,99.90
2019-04-16T22:44:18.679Z,99.90
2019-04-16T22:47:05.456Z,99.90
2019-04-16T22:49:38.983Z,99.90
2019-04-16T22:52:13.320Z,99.90
2019-04-16T22:57:23.279Z,99.90
2019-04-16T22:59:56.798Z,99.90
2019-04-16T23:02:31.020Z,99.90
2019-04-16T23:05:06.058Z,99.90
2019-04-16T23:07:40.310Z,99.90
2019-04-16T23:10:14.000Z,99.90
2019-04-16T23:12:48.838Z,99.90
2019-04-16T23:15:22.438Z,99.90
2019-04-16T23:17:56.042Z,99.90
2019-04-16T23:20:33.551Z,99.90
2019-04-16T23:23:05.396Z,99.90
2019-04-16T23:25:38.965Z,99.90
2019-04-16T23:28:12.563Z,99.90
2019-04-16T23:30:47.929Z,99.90
2019-04-16T23:33:21.472Z,99.90
2019-04-16T23:35:55.317Z,99.90
2019-04-16T23:38:31.582Z,99.90
2019-04-16T23:41:04.128Z,99.90
2019-04-16T23:43:39.295Z,99.90
2019-04-16T23:46:29.613Z,99.90
2019-04-16T23:49:04.893Z,99.90
2019-04-16T23:51:43.130Z,99.90
2019-04-16T23:54:24.118Z,99.90
2019-04-16T23:57:04.871Z,99.90
2019-04-16T23:59:42.984Z,99.90
